sensor_id;sensor_type;location;lat;lon;timestamp;temperature;humidity
29547;DHT22;40782;47.264;11.330;2023-04-03T00:00:08;7.10;1.00
29547;DHT22;40782;47.264;11.330;2023-04-03T00:02:35;7.20;1.00
29547;DHT22;40782;47.264;11.330;2023-04-03T00:05:03;7.10;1.00
29547;DHT22;40782;47.264;11.330;2023-04-03T00:07:30;7.10;1.00
29547;DHT22;40782;47.264;11.330;2023-04-03T00:09:57;7.10;1.00
29547;DHT22;40782;47.264;11.330;2023-04-03T00:12:24;7.00;1.00
29547;DHT22;40782;47.264;11.330;2023-04-03T00:14:52;7.00;1.00
29547;DHT22;40782;47.264;11.330;2023-04-03T00:17:19;7.00;99.90
29547;DHT22;40782;47.264;11.330;2023-04-03T00:19:46;6.90;99.90
29547;DHT22;40782;47.264;11.330;2023-04-03T00:22:13;6.80;1.00
29547;DHT22;40782;47.264;11.330;2023-04-03T00:24:40;6.80;1.00
29547;DHT22;40782;47.264;11.330;2023-04-03T00:27:07;6.80;1.00
29547;DHT22;40782;47.264;11.330;2023-04-03T00:29:34;6.70;1.00
29547;DHT22;40782;47.264;11.330;2023-04-03T00:32:03;6.70;1.00
29547;DHT22;40782;47.264;11.330;2023-04-03T00:34:30;6.70;1.00
29547;DHT22;40782;47.264;11.330;2023-04-03T00:36:58;6.70;99.90
29547;DHT22;40782;47.264;11.330;2023-04-03T00:39:25;6.70;99.90
29547;DHT22;40782;47.264;11.330;2023-04-03T00:41:52;6.70;99.90
29547;DHT22;40782;47.264;11.330;2023-04-03T00:44:23;6.60;1.00
29547;DHT22;40782;47.264;11.330;2023-04-03T00:47:11;6.60;1.00
29547;DHT22;40782;47.264;11.330;2023-04-03T00:49:39;6.60;1.00
29547;DHT22;40782;47.264;11.330;2023-04-03T00:52:07;6.60;99.90
29547;DHT22;40782;47.264;11.330;2023-04-03T00:54:35;6.60;99.90
29547;DHT22;40782;47.264;11.330;2023-04-03T00:57:03;6.50;99.90
29547;DHT22;40782;47.264;11.330;2023-04-03T00:59:31;6.50;1.00
29547;DHT22;40782;47.264;11.330;2023-04-03T01:01:59;6.50;1.00
29547;DHT22;40782;47.264;11.330;2023-04-03T01:04:29;6.50;1.00
29547;DHT22;40782;47.264;11.330;2023-04-03T01:06:56;6.40;1.00
29547;DHT22;40782;47.264;11.330;2023-04-03T01:09:24;6.40;1.00
29547;DHT22;40782;47.264;11.330;2023-04-03T01:11:52;6.40;1.00
29547;DHT22;40782;47.264;11.330;2023-04-03T01:14:19;6.40;1.00
29547;DHT22;40782;47.264;11.330;2023-04-03T01:16:51;6.50;1.00
29547;DHT22;40782;47.264;11.330;2023-04-03T01:19:18;6.50;99.90
29547;DHT22;40782;47.264;11.330;2023-04-03T01:22:03;6.50;99.90
29547;DHT22;40782;47.264;11.330;2023-04-03T01:24:34;6.50;99.90
29547;DHT22;40782;47.264;11.330;2023-04-03T01:27:03;6.50;99.90
29547;DHT22;40782;47.264;11.330;2023-04-03T01:29:30;6.50;99.90
29547;DHT22;40782;47.264;11.330;2023-04-03T01:31:59;6.40;99.90
29547;DHT22;40782;47.264;11.330;2023-04-03T01:34:26;6.30;99.90
29547;DHT22;40782;47.264;11.330;2023-04-03T01:36:54;6.20;1.00
29547;DHT22;40782;47.264;11.330;2023-04-03T01:39:21;6.10;1.00
29547;DHT22;40782;47.264;11.330;2023-04-03T01:41:49;6.10;1.00
29547;DHT22;40782;47.264;11.330;2023-04-03T01:44:16;6.20;1.00
29547;DHT22;40782;47.264;11.330;2023-04-03T01:46:43;6.20;1.00
29547;DHT22;40782;47.264;11.330;2023-04-03T01:49:11;6.20;1.00
29547;DHT22;40782;47.264;11.330;2023-04-03T01:51:38;6.20;99.90
29547;DHT22;40782;47.264;11.330;2023-04-03T01:54:05;6.20;99.90
29547;DHT22;40782;47.264;11.330;2023-04-03T01:56:32;6.20;99.90
29547;DHT22;40782;47.264;11.330;2023-04-03T01:58:59;6.10;99.90
29547;DHT22;40782;47.264;11.330;2023-04-03T02:01:26;6.00;1.00
29547;DHT22;40782;47.264;11.330;2023-04-03T02:03:53;6.00;1.00
29547;DHT22;40782;47.264;11.330;2023-04-03T02:06:22;6.00;1.00
29547;DHT22;40782;47.264;11.330;2023-04-03T02:08:49;6.00;1.00
29547;DHT22;40782;47.264;11.330;2023-04-03T02:11:16;6.00;99.90
29547;DHT22;40782;47.264;11.330;2023-04-03T02:13:43;6.00;1.00
29547;DHT22;40782;47.264;11.330;2023-04-03T02:16:10;6.00;1.00
29547;DHT22;40782;47.264;11.330;2023-04-03T02:18:38;5.90;99.90
29547;DHT22;40782;47.264;11.330;2023-04-03T02:21:05;5.90;99.90
29547;DHT22;40782;47.264;11.330;2023-04-03T02:23:34;6.00;99.90
29547;DHT22;40782;47.264;11.330;2023-04-03T02:26:03;6.10;99.90
29547;DHT22;40782;47.264;11.330;2023-04-03T02:28:30;6.10;99.90
29547;DHT22;40782;47.264;11.330;2023-04-03T02:30:57;6.10;99.90
29547;DHT22;40782;47.264;11.330;2023-04-03T02:33:24;6.10;99.90
29547;DHT22;40782;47.264;11.330;2023-04-03T02:35:52;6.10;95.20
29547;DHT22;40782;47.264;11.330;2023-04-03T02:38:19;6.10;69.20
29547;DHT22;40782;47.264;11.330;2023-04-03T02:40:48;6.00;99.90
29547;DHT22;40782;47.264;11.330;2023-04-03T02:43:15;5.90;99.90
29547;DHT22;40782;47.264;11.330;2023-04-03T02:45:42;5.90;99.90
29547;DHT22;40782;47.264;11.330;2023-04-03T02:48:09;6.00;99.90
29547;DHT22;40782;47.264;11.330;2023-04-03T02:50:37;6.00;99.90
29547;DHT22;40782;47.264;11.330;2023-04-03T02:53:04;5.90;99.90
29547;DHT22;40782;47.264;11.330;2023-04-03T02:55:31;5.90;99.90
29547;DHT22;40782;47.264;11.330;2023-04-03T02:57:59;5.80;99.90
29547;DHT22;40782;47.264;11.330;2023-04-03T03:00:26;5.70;99.90
29547;DHT22;40782;47.264;11.330;2023-04-03T03:02:53;5.70;99.90
29547;DHT22;40782;47.264;11.330;2023-04-03T03:05:21;5.80;96.30
29547;DHT22;40782;47.264;11.330;2023-04-03T03:07:48;5.80;66.30
29547;DHT22;40782;47.264;11.330;2023-04-03T03:10:15;5.70;99.90
29547;DHT22;40782;47.264;11.330;2023-04-03T03:12:42;5.50;99.90
29547;DHT22;40782;47.264;11.330;2023-04-03T03:15:11;5.60;99.90
29547;DHT22;40782;47.264;11.330;2023-04-03T03:17:38;5.60;82.10
29547;DHT22;40782;47.264;11.330;2023-04-03T03:20:06;5.70;26.00
29547;DHT22;40782;47.264;11.330;2023-04-03T03:22:34;5.80;1.00
29547;DHT22;40782;47.264;11.330;2023-04-03T03:25:01;5.70;1.00
29547;DHT22;40782;47.264;11.330;2023-04-03T03:27:28;5.60;1.10
29547;DHT22;40782;47.264;11.330;2023-04-03T03:29:55;5.60;1.00
29547;DHT22;40782;47.264;11.330;2023-04-03T03:32:24;5.60;1.00
29547;DHT22;40782;47.264;11.330;2023-04-03T03:34:51;5.60;1.00
29547;DHT22;40782;47.264;11.330;2023-04-03T03:37:18;5.60;1.00
29547;DHT22;40782;47.264;11.330;2023-04-03T03:39:45;5.70;1.00
29547;DHT22;40782;47.264;11.330;2023-04-03T03:42:12;5.70;1.00
29547;DHT22;40782;47.264;11.330;2023-04-03T03:44:40;5.70;1.00
29547;DHT22;40782;47.264;11.330;2023-04-03T03:47:07;5.60;1.00
29547;DHT22;40782;47.264;11.330;2023-04-03T03:49:37;5.60;1.00
29547;DHT22;40782;47.264;11.330;2023-04-03T03:52:04;5.60;1.00
29547;DHT22;40782;47.264;11.330;2023-04-03T03:54:31;5.60;1.00
29547;DHT22;40782;47.264;11.330;2023-04-03T03:56:58;5.60;1.00
29547;DHT22;40782;47.264;11.330;2023-04-03T03:59:25;5.60;1.00
29547;DHT22;40782;47.264;11.330;2023-04-03T04:01:52;5.50;1.00
29547;DHT22;40782;47.264;11.330;2023-04-03T04:04:20;5.40;1.00
29547;DHT22;40782;47.264;11.330;2023-04-03T04:06:48;5.40;1.00
29547;DHT22;40782;47.264;11.330;2023-04-03T04:09:16;5.40;1.00
29547;DHT22;40782;47.264;11.330;2023-04-03T04:11:43;5.50;1.00
29547;DHT22;40782;47.264;11.330;2023-04-03T04:14:11;5.40;1.00
29547;DHT22;40782;47.264;11.330;2023-04-03T04:16:39;5.30;1.00
29547;DHT22;40782;47.264;11.330;2023-04-03T04:19:06;5.30;1.00
29547;DHT22;40782;47.264;11.330;2023-04-03T04:21:33;5.20;1.00
29547;DHT22;40782;47.264;11.330;2023-04-03T04:24:01;5.20;1.00
29547;DHT22;40782;47.264;11.330;2023-04-03T04:26:28;5.20;1.00
29547;DHT22;40782;47.264;11.330;2023-04-03T04:28:55;5.10;1.00
29547;DHT22;40782;47.264;11.330;2023-04-03T04:31:22;5.10;1.00
29547;DHT22;40782;47.264;11.330;2023-04-03T04:33:49;5.20;1.00
29547;DHT22;40782;47.264;11.330;2023-04-03T04:36:16;5.20;1.00
29547;DHT22;40782;47.264;11.330;2023-04-03T04:38:43;5.10;1.00
29547;DHT22;40782;47.264;11.330;2023-04-03T04:41:12;5.10;1.00
29547;DHT22;40782;47.264;11.330;2023-04-03T04:43:39;5.10;1.00
29547;DHT22;40782;47.264;11.330;2023-04-03T04:46:07;5.20;1.00
29547;DHT22;40782;47.264;11.330;2023-04-03T04:48:35;5.00;1.00
29547;DHT22;40782;47.264;11.330;2023-04-03T04:51:02;4.80;1.00
29547;DHT22;40782;47.264;11.330;2023-04-03T04:53:30;4.90;1.00
29547;DHT22;40782;47.264;11.330;2023-04-03T04:55:57;5.00;1.00
29547;DHT22;40782;47.264;11.330;2023-04-03T04:58:25;5.10;1.00
29547;DHT22;40782;47.264;11.330;2023-04-03T05:00:57;5.10;1.00
29547;DHT22;40782;47.264;11.330;2023-04-03T05:03:25;5.10;1.00
29547;DHT22;40782;47.264;11.330;2023-04-03T05:05:52;5.10;1.00
29547;DHT22;40782;47.264;11.330;2023-04-03T05:08:19;5.00;1.00
29547;DHT22;40782;47.264;11.330;2023-04-03T05:10:48;4.90;1.00
29547;DHT22;40782;47.264;11.330;2023-04-03T05:13:15;4.90;1.00
29547;DHT22;40782;47.264;11.330;2023-04-03T05:15:43;5.00;1.00
29547;DHT22;40782;47.264;11.330;2023-04-03T05:18:10;5.00;1.00
29547;DHT22;40782;47.264;11.330;2023-04-03T05:20:38;5.00;1.00
29547;DHT22;40782;47.264;11.330;2023-04-03T05:23:05;5.10;1.00
29547;DHT22;40782;47.264;11.330;2023-04-03T05:25:33;5.00;1.00
29547;DHT22;40782;47.264;11.330;2023-04-03T05:28:00;4.90;1.00
29547;DHT22;40782;47.264;11.330;2023-04-03T05:30:27;4.80;6.30
29547;DHT22;40782;47.264;11.330;2023-04-03T05:32:56;4.60;85.70
29547;DHT22;40782;47.264;11.330;2023-04-03T05:35:25;4.50;99.90
29547;DHT22;40782;47.264;11.330;2023-04-03T05:37:52;4.40;99.90
29547;DHT22;40782;47.264;11.330;2023-04-03T05:40:21;4.30;1.00
29547;DHT22;40782;47.264;11.330;2023-04-03T05:42:49;4.40;1.00
29547;DHT22;40782;47.264;11.330;2023-04-03T05:45:16;4.50;1.00
29547;DHT22;40782;47.264;11.330;2023-04-03T05:47:43;4.30;99.90
29547;DHT22;40782;47.264;11.330;2023-04-03T05:50:12;4.30;1.00
29547;DHT22;40782;47.264;11.330;2023-04-03T05:52:40;4.20;1.00
29547;DHT22;40782;47.264;11.330;2023-04-03T05:55:09;4.20;1.00
29547;DHT22;40782;47.264;11.330;2023-04-03T05:57:36;4.20;1.00
29547;DHT22;40782;47.264;11.330;2023-04-03T06:00:03;4.10;99.90
29547;DHT22;40782;47.264;11.330;2023-04-03T06:02:31;4.30;99.90
29547;DHT22;40782;47.264;11.330;2023-04-03T06:04:58;4.40;1.00
29547;DHT22;40782;47.264;11.330;2023-04-03T06:07:27;4.50;1.00
29547;DHT22;40782;47.264;11.330;2023-04-03T06:09:55;4.60;99.90
29547;DHT22;40782;47.264;11.330;2023-04-03T06:12:22;4.60;1.00
29547;DHT22;40782;47.264;11.330;2023-04-03T06:14:49;4.50;99.90
29547;DHT22;40782;47.264;11.330;2023-04-03T06:17:16;4.40;99.90
29547;DHT22;40782;47.264;11.330;2023-04-03T06:19:44;4.30;99.90
29547;DHT22;40782;47.264;11.330;2023-04-03T06:22:12;4.10;99.90
29547;DHT22;40782;47.264;11.330;2023-04-03T06:24:40;4.00;99.90
29547;DHT22;40782;47.264;11.330;2023-04-03T06:27:09;4.00;1.00
29547;DHT22;40782;47.264;11.330;2023-04-03T06:29:36;4.10;1.00
29547;DHT22;40782;47.264;11.330;2023-04-03T06:32:03;4.10;1.00
29547;DHT22;40782;47.264;11.330;2023-04-03T06:34:31;4.20;1.00
29547;DHT22;40782;47.264;11.330;2023-04-03T06:36:58;4.30;99.90
29547;DHT22;40782;47.264;11.330;2023-04-03T06:39:25;4.30;99.90
29547;DHT22;40782;47.264;11.330;2023-04-03T06:41:54;4.50;99.90
29547;DHT22;40782;47.264;11.330;2023-04-03T06:44:21;4.70;99.90
29547;DHT22;40782;47.264;11.330;2023-04-03T06:46:48;4.80;99.90
29547;DHT22;40782;47.264;11.330;2023-04-03T06:49:15;4.90;1.00
29547;DHT22;40782;47.264;11.330;2023-04-03T06:51:42;4.60;1.00
29547;DHT22;40782;47.264;11.330;2023-04-03T06:54:09;4.60;1.00
29547;DHT22;40782;47.264;11.330;2023-04-03T06:56:36;4.70;1.00
29547;DHT22;40782;47.264;11.330;2023-04-03T06:59:05;4.90;1.00
29547;DHT22;40782;47.264;11.330;2023-04-03T07:01:32;4.90;1.00
29547;DHT22;40782;47.264;11.330;2023-04-03T07:03:59;4.80;32.70
29547;DHT22;40782;47.264;11.330;2023-04-03T07:06:26;4.90;53.60
29547;DHT22;40782;47.264;11.330;2023-04-03T07:08:53;4.90;92.10
29547;DHT22;40782;47.264;11.330;2023-04-03T07:11:20;4.80;99.90
29547;DHT22;40782;47.264;11.330;2023-04-03T07:13:48;4.90;99.90
29547;DHT22;40782;47.264;11.330;2023-04-03T07:16:16;4.90;99.90
29547;DHT22;40782;47.264;11.330;2023-04-03T07:18:43;5.00;99.90
29547;DHT22;40782;47.264;11.330;2023-04-03T07:21:10;5.00;99.90
29547;DHT22;40782;47.264;11.330;2023-04-03T07:23:37;5.00;99.90
29547;DHT22;40782;47.264;11.330;2023-04-03T07:26:05;5.00;99.90
29547;DHT22;40782;47.264;11.330;2023-04-03T07:28:33;5.10;99.90
29547;DHT22;40782;47.264;11.330;2023-04-03T07:31:02;5.20;99.90
29547;DHT22;40782;47.264;11.330;2023-04-03T07:33:31;5.30;99.90
29547;DHT22;40782;47.264;11.330;2023-04-03T07:35:58;5.40;96.30
29547;DHT22;40782;47.264;11.330;2023-04-03T07:38:26;5.20;1.00
29547;DHT22;40782;47.264;11.330;2023-04-03T07:40:53;5.10;1.00
29547;DHT22;40782;47.264;11.330;2023-04-03T07:43:20;4.90;1.00
29547;DHT22;40782;47.264;11.330;2023-04-03T07:45:48;4.90;1.60
29547;DHT22;40782;47.264;11.330;2023-04-03T07:48:16;4.70;30.20
29547;DHT22;40782;47.264;11.330;2023-04-03T07:50:45;4.60;19.00
29547;DHT22;40782;47.264;11.330;2023-04-03T07:53:15;4.60;45.20
29547;DHT22;40782;47.264;11.330;2023-04-03T07:55:42;4.70;39.20
29547;DHT22;40782;47.264;11.330;2023-04-03T07:58:09;4.70;26.10
29547;DHT22;40782;47.264;11.330;2023-04-03T08:00:37;4.80;79.30
29547;DHT22;40782;47.264;11.330;2023-04-03T08:03:04;5.00;95.30
29547;DHT22;40782;47.264;11.330;2023-04-03T08:05:34;5.10;39.00
29547;DHT22;40782;47.264;11.330;2023-04-03T08:08:04;5.20;1.00
29547;DHT22;40782;47.264;11.330;2023-04-03T08:10:31;5.10;1.00
29547;DHT22;40782;47.264;11.330;2023-04-03T08:12:58;5.10;1.00
29547;DHT22;40782;47.264;11.330;2023-04-03T08:15:25;5.00;1.00
29547;DHT22;40782;47.264;11.330;2023-04-03T08:17:52;5.00;1.00
29547;DHT22;40782;47.264;11.330;2023-04-03T08:20:19;5.00;1.00
29547;DHT22;40782;47.264;11.330;2023-04-03T08:22:47;5.00;1.00
29547;DHT22;40782;47.264;11.330;2023-04-03T08:25:15;5.10;1.00
29547;DHT22;40782;47.264;11.330;2023-04-03T08:27:43;5.20;1.00
29547;DHT22;40782;47.264;11.330;2023-04-03T08:30:10;5.20;1.00
29547;DHT22;40782;47.264;11.330;2023-04-03T08:32:37;5.30;1.00
29547;DHT22;40782;47.264;11.330;2023-04-03T08:35:05;5.40;1.00
29547;DHT22;40782;47.264;11.330;2023-04-03T08:37:34;5.40;1.00
29547;DHT22;40782;47.264;11.330;2023-04-03T08:40:01;5.50;1.00
29547;DHT22;40782;47.264;11.330;2023-04-03T08:42:34;5.60;1.00
29547;DHT22;40782;47.264;11.330;2023-04-03T08:45:05;5.60;1.00
29547;DHT22;40782;47.264;11.330;2023-04-03T08:47:37;5.70;1.00
29547;DHT22;40782;47.264;11.330;2023-04-03T08:50:06;5.80;1.00
29547;DHT22;40782;47.264;11.330;2023-04-03T08:52:35;5.80;1.00
29547;DHT22;40782;47.264;11.330;2023-04-03T08:55:03;6.10;1.00
29547;DHT22;40782;47.264;11.330;2023-04-03T08:57:33;6.40;1.00
29547;DHT22;40782;47.264;11.330;2023-04-03T09:00:05;6.70;1.00
29547;DHT22;40782;47.264;11.330;2023-04-03T09:02:34;7.00;1.00
29547;DHT22;40782;47.264;11.330;2023-04-03T09:05:08;6.80;1.00
29547;DHT22;40782;47.264;11.330;2023-04-03T09:07:39;7.00;1.00
29547;DHT22;40782;47.264;11.330;2023-04-03T09:10:09;7.40;1.00
29547;DHT22;40782;47.264;11.330;2023-04-03T09:12:39;7.50;1.00
29547;DHT22;40782;47.264;11.330;2023-04-03T09:15:10;7.60;1.00
29547;DHT22;40782;47.264;11.330;2023-04-03T09:17:41;7.60;1.00
29547;DHT22;40782;47.264;11.330;2023-04-03T09:20:15;7.50;1.00
29547;DHT22;40782;47.264;11.330;2023-04-03T09:22:44;7.30;1.00
29547;DHT22;40782;47.264;11.330;2023-04-03T09:25:12;7.70;1.00
29547;DHT22;40782;47.264;11.330;2023-04-03T09:27:41;7.70;1.00
29547;DHT22;40782;47.264;11.330;2023-04-03T09:30:12;7.70;1.00
29547;DHT22;40782;47.264;11.330;2023-04-03T09:32:40;8.00;1.00
29547;DHT22;40782;47.264;11.330;2023-04-03T09:35:15;8.20;1.00
29547;DHT22;40782;47.264;11.330;2023-04-03T09:37:45;8.20;1.00
29547;DHT22;40782;47.264;11.330;2023-04-03T09:43:02;8.40;1.00
29547;DHT22;40782;47.264;11.330;2023-04-03T09:45:30;8.60;1.00
29547;DHT22;40782;47.264;11.330;2023-04-03T09:48:04;8.40;1.00
29547;DHT22;40782;47.264;11.330;2023-04-03T09:50:32;8.50;1.00
29547;DHT22;40782;47.264;11.330;2023-04-03T09:53:04;8.40;1.00
29547;DHT22;40782;47.264;11.330;2023-04-03T09:55:32;8.80;1.00
29547;DHT22;40782;47.264;11.330;2023-04-03T09:58:00;8.90;1.00
29547;DHT22;40782;47.264;11.330;2023-04-03T10:00:30;9.10;1.00
29547;DHT22;40782;47.264;11.330;2023-04-03T10:02:58;9.10;1.00
29547;DHT22;40782;47.264;11.330;2023-04-03T10:05:27;8.90;1.00
29547;DHT22;40782;47.264;11.330;2023-04-03T10:08:06;9.00;1.00
29547;DHT22;40782;47.264;11.330;2023-04-03T10:10:33;9.20;1.00
29547;DHT22;40782;47.264;11.330;2023-04-03T10:13:05;9.00;99.90
29547;DHT22;40782;47.264;11.330;2023-04-03T10:15:36;9.00;99.90
29547;DHT22;40782;47.264;11.330;2023-04-03T10:18:04;9.00;99.90
29547;DHT22;40782;47.264;11.330;2023-04-03T10:20:34;8.90;99.90
29547;DHT22;40782;47.264;11.330;2023-04-03T10:23:11;8.90;99.90
29547;DHT22;40782;47.264;11.330;2023-04-03T10:25:42;8.90;99.90
29547;DHT22;40782;47.264;11.330;2023-04-03T10:28:11;9.00;99.90
29547;DHT22;40782;47.264;11.330;2023-04-03T10:30:48;9.20;99.90
29547;DHT22;40782;47.264;11.330;2023-04-03T10:33:19;9.10;99.90
29547;DHT22;40782;47.264;11.330;2023-04-03T10:35:49;9.30;99.90
29547;DHT22;40782;47.264;11.330;2023-04-03T10:38:19;9.20;99.90
29547;DHT22;40782;47.264;11.330;2023-04-03T10:40:51;9.20;99.90
29547;DHT22;40782;47.264;11.330;2023-04-03T10:43:21;9.20;99.90
29547;DHT22;40782;47.264;11.330;2023-04-03T10:45:55;9.40;99.90
29547;DHT22;40782;47.264;11.330;2023-04-03T10:48:29;9.50;99.90
29547;DHT22;40782;47.264;11.330;2023-04-03T10:50:58;9.50;99.90
29547;DHT22;40782;47.264;11.330;2023-04-03T10:53:29;9.50;99.90
29547;DHT22;40782;47.264;11.330;2023-04-03T10:56:02;9.50;99.90
29547;DHT22;40782;47.264;11.330;2023-04-03T10:58:30;9.40;99.90
29547;DHT22;40782;47.264;11.330;2023-04-03T11:01:01;9.40;99.90
29547;DHT22;40782;47.264;11.330;2023-04-03T11:03:30;9.50;99.90
29547;DHT22;40782;47.264;11.330;2023-04-03T11:05:59;9.50;99.90
29547;DHT22;40782;47.264;11.330;2023-04-03T11:08:30;9.20;99.90
29547;DHT22;40782;47.264;11.330;2023-04-03T11:11:00;9.10;99.90
29547;DHT22;40782;47.264;11.330;2023-04-03T11:13:30;9.40;99.90
29547;DHT22;40782;47.264;11.330;2023-04-03T11:16:00;9.30;99.90
29547;DHT22;40782;47.264;11.330;2023-04-03T11:18:31;9.20;99.90
29547;DHT22;40782;47.264;11.330;2023-04-03T11:21:03;9.10;99.90
29547;DHT22;40782;47.264;11.330;2023-04-03T11:23:31;8.90;99.90
29547;DHT22;40782;47.264;11.330;2023-04-03T11:26:04;8.90;99.90
29547;DHT22;40782;47.264;11.330;2023-04-03T11:28:33;8.80;99.90
29547;DHT22;40782;47.264;11.330;2023-04-03T11:31:05;8.60;99.90
29547;DHT22;40782;47.264;11.330;2023-04-03T11:33:40;8.50;99.90
29547;DHT22;40782;47.264;11.330;2023-04-03T11:36:09;8.50;99.90
29547;DHT22;40782;47.264;11.330;2023-04-03T11:38:38;8.40;99.90
29547;DHT22;40782;47.264;11.330;2023-04-03T11:41:08;8.30;99.90
29547;DHT22;40782;47.264;11.330;2023-04-03T11:43:39;8.40;99.90
29547;DHT22;40782;47.264;11.330;2023-04-03T11:46:08;8.30;99.90
29547;DHT22;40782;47.264;11.330;2023-04-03T11:48:49;8.30;99.90
29547;DHT22;40782;47.264;11.330;2023-04-03T11:56:50;8.40;99.90
29547;DHT22;40782;47.264;11.330;2023-04-03T11:59:23;8.40;99.90
29547;DHT22;40782;47.264;11.330;2023-04-03T12:01:53;8.50;99.90
29547;DHT22;40782;47.264;11.330;2023-04-03T12:04:21;8.70;99.90
29547;DHT22;40782;47.264;11.330;2023-04-03T12:06:52;8.50;99.90
29547;DHT22;40782;47.264;11.330;2023-04-03T12:09:25;8.40;99.90
29547;DHT22;40782;47.264;11.330;2023-04-03T12:11:53;8.50;99.90
29547;DHT22;40782;47.264;11.330;2023-04-03T12:14:21;8.60;99.90
29547;DHT22;40782;47.264;11.330;2023-04-03T12:16:49;8.70;99.90
29547;DHT22;40782;47.264;11.330;2023-04-03T12:19:35;8.70;99.90
29547;DHT22;40782;47.264;11.330;2023-04-03T12:22:09;8.70;99.90
29547;DHT22;40782;47.264;11.330;2023-04-03T12:24:37;8.80;99.90
29547;DHT22;40782;47.264;11.330;2023-04-03T12:27:14;8.70;99.90
29547;DHT22;40782;47.264;11.330;2023-04-03T12:29:45;8.70;99.90
29547;DHT22;40782;47.264;11.330;2023-04-03T12:32:17;8.70;99.90
29547;DHT22;40782;47.264;11.330;2023-04-03T12:34:54;8.80;99.90
29547;DHT22;40782;47.264;11.330;2023-04-03T12:37:28;9.00;99.90
29547;DHT22;40782;47.264;11.330;2023-04-03T12:40:02;9.10;99.90
29547;DHT22;40782;47.264;11.330;2023-04-03T12:42:55;9.20;99.90
29547;DHT22;40782;47.264;11.330;2023-04-03T12:45:25;9.40;99.90
29547;DHT22;40782;47.264;11.330;2023-04-03T12:47:53;9.60;99.90
29547;DHT22;40782;47.264;11.330;2023-04-03T12:50:22;9.50;99.90
29547;DHT22;40782;47.264;11.330;2023-04-03T12:52:57;9.40;99.90
29547;DHT22;40782;47.264;11.330;2023-04-03T12:55:26;9.30;99.90
29547;DHT22;40782;47.264;11.330;2023-04-03T12:57:53;9.10;99.90
29547;DHT22;40782;47.264;11.330;2023-04-03T13:00:22;9.00;99.90
29547;DHT22;40782;47.264;11.330;2023-04-03T13:02:52;8.90;99.90
29547;DHT22;40782;47.264;11.330;2023-04-03T13:05:21;9.00;99.90
29547;DHT22;40782;47.264;11.330;2023-04-03T13:07:50;8.90;99.90
29547;DHT22;40782;47.264;11.330;2023-04-03T13:10:19;8.80;99.90
29547;DHT22;40782;47.264;11.330;2023-04-03T13:12:48;8.70;99.90
29547;DHT22;40782;47.264;11.330;2023-04-03T13:15:17;8.60;99.90
29547;DHT22;40782;47.264;11.330;2023-04-03T13:17:44;8.50;99.90
29547;DHT22;40782;47.264;11.330;2023-04-03T13:20:12;8.60;99.90
29547;DHT22;40782;47.264;11.330;2023-04-03T13:22:41;8.60;99.90
29547;DHT22;40782;47.264;11.330;2023-04-03T13:25:13;8.60;99.90
29547;DHT22;40782;47.264;11.330;2023-04-03T13:27:40;8.60;99.90
29547;DHT22;40782;47.264;11.330;2023-04-03T13:30:17;8.60;99.90
29547;DHT22;40782;47.264;11.330;2023-04-03T13:32:45;8.70;99.90
29547;DHT22;40782;47.264;11.330;2023-04-03T13:35:29;8.80;99.90
29547;DHT22;40782;47.264;11.330;2023-04-03T13:37:57;8.90;99.90
29547;DHT22;40782;47.264;11.330;2023-04-03T13:40:26;8.70;99.90
29547;DHT22;40782;47.264;11.330;2023-04-03T13:43:01;8.60;99.90
29547;DHT22;40782;47.264;11.330;2023-04-03T13:45:28;8.50;99.90
29547;DHT22;40782;47.264;11.330;2023-04-03T13:48:07;8.30;99.90
29547;DHT22;40782;47.264;11.330;2023-04-03T13:50:40;8.30;99.90
29547;DHT22;40782;47.264;11.330;2023-04-03T13:53:16;8.20;99.90
29547;DHT22;40782;47.264;11.330;2023-04-03T13:55:54;8.10;99.90
29547;DHT22;40782;47.264;11.330;2023-04-03T13:58:23;8.10;99.90
29547;DHT22;40782;47.264;11.330;2023-04-03T14:00:51;8.10;99.90
29547;DHT22;40782;47.264;11.330;2023-04-03T14:03:19;8.10;99.90
29547;DHT22;40782;47.264;11.330;2023-04-03T14:05:47;8.10;99.90
29547;DHT22;40782;47.264;11.330;2023-04-03T14:08:14;8.00;99.90
29547;DHT22;40782;47.264;11.330;2023-04-03T14:10:41;7.90;99.90
29547;DHT22;40782;47.264;11.330;2023-04-03T14:13:11;7.80;99.90
29547;DHT22;40782;47.264;11.330;2023-04-03T14:15:38;7.80;99.90
29547;DHT22;40782;47.264;11.330;2023-04-03T14:18:05;7.70;99.90
29547;DHT22;40782;47.264;11.330;2023-04-03T14:20:32;7.70;99.90
29547;DHT22;40782;47.264;11.330;2023-04-03T14:22:59;7.70;99.90
29547;DHT22;40782;47.264;11.330;2023-04-03T14:25:27;7.80;99.90
29547;DHT22;40782;47.264;11.330;2023-04-03T14:27:54;7.70;99.90
29547;DHT22;40782;47.264;11.330;2023-04-03T14:30:24;7.70;99.90
29547;DHT22;40782;47.264;11.330;2023-04-03T14:32:51;7.70;99.90
29547;DHT22;40782;47.264;11.330;2023-04-03T14:35:19;7.60;99.90
29547;DHT22;40782;47.264;11.330;2023-04-03T14:37:46;7.60;99.90
29547;DHT22;40782;47.264;11.330;2023-04-03T14:40:15;7.60;99.90
29547;DHT22;40782;47.264;11.330;2023-04-03T14:42:43;7.70;99.90
29547;DHT22;40782;47.264;11.330;2023-04-03T14:45:13;7.70;99.90
29547;DHT22;40782;47.264;11.330;2023-04-03T14:47:43;7.60;99.90
29547;DHT22;40782;47.264;11.330;2023-04-03T14:50:12;7.60;99.90
29547;DHT22;40782;47.264;11.330;2023-04-03T14:52:41;7.50;99.90
29547;DHT22;40782;47.264;11.330;2023-04-03T14:55:09;7.50;99.90
29547;DHT22;40782;47.264;11.330;2023-04-03T14:57:36;7.60;99.90
29547;DHT22;40782;47.264;11.330;2023-04-03T15:00:06;7.60;99.90
29547;DHT22;40782;47.264;11.330;2023-04-03T15:02:34;7.60;99.90
29547;DHT22;40782;47.264;11.330;2023-04-03T15:05:03;7.60;99.90
29547;DHT22;40782;47.264;11.330;2023-04-03T15:07:32;7.70;99.90
29547;DHT22;40782;47.264;11.330;2023-04-03T15:10:00;7.70;99.90
29547;DHT22;40782;47.264;11.330;2023-04-03T15:12:28;7.70;99.90
29547;DHT22;40782;47.264;11.330;2023-04-03T15:14:55;7.70;99.90
29547;DHT22;40782;47.264;11.330;2023-04-03T15:17:22;7.70;99.90
29547;DHT22;40782;47.264;11.330;2023-04-03T15:19:49;7.60;99.90
29547;DHT22;40782;47.264;11.330;2023-04-03T15:22:18;7.60;99.90
29547;DHT22;40782;47.264;11.330;2023-04-03T15:24:45;7.70;99.90
29547;DHT22;40782;47.264;11.330;2023-04-03T15:27:13;7.60;99.90
29547;DHT22;40782;47.264;11.330;2023-04-03T15:29:41;7.50;99.90
29547;DHT22;40782;47.264;11.330;2023-04-03T15:32:08;7.50;99.90
29547;DHT22;40782;47.264;11.330;2023-04-03T15:34:35;7.30;99.90
29547;DHT22;40782;47.264;11.330;2023-04-03T15:37:03;7.30;99.90
29547;DHT22;40782;47.264;11.330;2023-04-03T15:39:32;7.20;99.90
29547;DHT22;40782;47.264;11.330;2023-04-03T15:41:59;7.20;99.90
29547;DHT22;40782;47.264;11.330;2023-04-03T15:44:31;7.10;99.90
29547;DHT22;40782;47.264;11.330;2023-04-03T15:46:59;7.00;99.90
29547;DHT22;40782;47.264;11.330;2023-04-03T15:49:26;6.90;99.90
29547;DHT22;40782;47.264;11.330;2023-04-03T15:51:53;7.00;99.90
29547;DHT22;40782;47.264;11.330;2023-04-03T15:54:20;7.10;99.90